Aérodrome :
LOGIN :

S'inscrire | Disclaimer

   EN    FR    IT 

 










Légende :    VFR   VFR Marginal   IFR   IFR Intensif   IFR Très Intensif
Visi : 
Plafond : 
>= 8 km
>= 3000ft
5 à 8 km
1000 à 3000 ft
1500m à 5 km
500 à 1000 ft
800 à 1500m
200 à 500 ft
< 800m
< 200 ft
Symboles :   Orages  Brouillard  Fortes neiges  Fortes précipitations  Vent > 20 kt
SIGMETs :   Divers  Orages  Givrage  Turbulence  Onde Orograph.  Cendres Volcan.






- Altitude de l'aérodrome : 0 ft


ETEB - Ansbach Army Heliport

DERNIER METAR :
  • 250755Z AUTO 04008KT 9999 CLR 21/12 A2998 RMK AO2 SLP158 T02090118 $

METARs EXPIRÉS :
  • 250655Z AUTO 06007KT 9999 CLR 19/12 A2999 RMK AO2 SLP162 T01930118 $
  • 250555Z AUTO 04006KT 9999 CLR 17/11 A3000 RMK AO2 SLP166 T01700110 10170 20147 56001 $
  • 250455Z AUTO 04007KT 9999 CLR 16/11 A3000 RMK AO2 SLP166 T01570105 $
  • 250355Z AUTO 03007KT 9999 CLR 15/10 A3000 RMK AO2 SLP166 T01480098 $

TAF TAF ETEB
Valide du 25 à 07h jusqu'au 26 à 13h UTC


250700Z 2507/2613 07009KT 9999 SKC QNH2986INS
BECMG 2509/2510 06010G15KT 9999 SKC QNH2999INS
BECMG 2518/2519 VRB06KT 9999 FEW050 QNH2991INS
BECMG 2601/2602 36006KT 6000 BR FEW050 QNH2989INS
BECMG 2604/2605 VRB06KT 9999 NSW FEW020 QNH2987INS TX26/2515Z TN15/2603Z



MET'MAP, la Météo Aéronautique d'un coup d'oeil ! - Copyright ORBIFLY Décembre 2007 - Disclaimer

ORBIFLY MET'MAP TEAM :

Programmation & Développement : Alexandra Zaïnal
Sur une idée originale de : Baudouin d'Aumeries
Soutien technique & logistique : Manuel Goepfert
Assistance : Marc-Olivier Méhu




SOURCES & CREDITS :

   NOAA